sensor_id;sensor_type;location;lat;lon;timestamp;P1;durP1;ratioP1;P2;durP2;ratioP2
19560;SDS011;9927;47.792;10.616;2023-01-15T04:01:35;2.65;;;2.53;;
19560;SDS011;9927;47.792;10.616;2023-01-15T04:04:05;2.97;;;2.78;;
19560;SDS011;9927;47.792;10.616;2023-01-15T04:06:33;3.13;;;2.85;;
19560;SDS011;9927;47.792;10.616;2023-01-15T04:09:03;3.00;;;2.80;;
19560;SDS011;9927;47.792;10.616;2023-01-15T04:11:34;2.78;;;2.58;;
19560;SDS011;9927;47.792;10.616;2023-01-15T04:14:02;2.10;;;2.10;;
19560;SDS011;9927;47.792;10.616;2023-01-15T04:16:31;3.00;;;2.75;;
19560;SDS011;9927;47.792;10.616;2023-01-15T04:19:00;2.15;;;2.10;;
19560;SDS011;9927;47.792;10.616;2023-01-15T04:21:27;2.65;;;2.45;;
19560;SDS011;9927;47.792;10.616;2023-01-15T04:23:55;2.90;;;2.70;;
19560;SDS011;9927;47.792;10.616;2023-01-15T04:26:22;2.10;;;2.10;;
19560;SDS011;9927;47.792;10.616;2023-01-15T04:28:49;2.67;;;2.58;;
19560;SDS011;9927;47.792;10.616;2023-01-15T04:31:16;2.90;;;2.70;;
19560;SDS011;9927;47.792;10.616;2023-01-15T04:33:44;2.58;;;2.40;;
19560;SDS011;9927;47.792;10.616;2023-01-15T04:36:11;2.88;;;2.67;;
19560;SDS011;9927;47.792;10.616;2023-01-15T04:38:40;2.70;;;2.50;;
19560;SDS011;9927;47.792;10.616;2023-01-15T04:41:08;2.70;;;2.50;;
19560;SDS011;9927;47.792;10.616;2023-01-15T04:43:54;2.63;;;2.53;;
19560;SDS011;9927;47.792;10.616;2023-01-15T04:46:37;2.70;;;2.50;;
19560;SDS011;9927;47.792;10.616;2023-01-15T04:49:08;2.63;;;2.45;;
19560;SDS011;9927;47.792;10.616;2023-01-15T04:51:40;2.63;;;2.42;;
19560;SDS011;9927;47.792;10.616;2023-01-15T04:54:08;2.83;;;2.63;;
19560;SDS011;9927;47.792;10.616;2023-01-15T04:56:37;3.65;;;2.60;;
19560;SDS011;9927;47.792;10.616;2023-01-15T04:59:07;2.88;;;2.67;;
19560;SDS011;9927;47.792;10.616;2023-01-15T05:01:35;3.05;;;2.50;;
19560;SDS011;9927;47.792;10.616;2023-01-15T05:04:03;4.13;;;3.22;;
19560;SDS011;9927;47.792;10.616;2023-01-15T05:06:30;4.40;;;3.00;;
19560;SDS011;9927;47.792;10.616;2023-01-15T05:08:58;2.72;;;2.50;;
19560;SDS011;9927;47.792;10.616;2023-01-15T05:11:26;2.78;;;2.28;;
19560;SDS011;9927;47.792;10.616;2023-01-15T05:13:54;2.70;;;2.50;;
19560;SDS011;9927;47.792;10.616;2023-01-15T05:16:22;5.38;;;3.30;;
19560;SDS011;9927;47.792;10.616;2023-01-15T05:18:51;3.00;;;2.67;;
19560;SDS011;9927;47.792;10.616;2023-01-15T05:21:21;2.60;;;2.40;;
19560;SDS011;9927;47.792;10.616;2023-01-15T05:23:51;2.88;;;2.50;;
19560;SDS011;9927;47.792;10.616;2023-01-15T05:26:20;2.83;;;2.63;;
19560;SDS011;9927;47.792;10.616;2023-01-15T05:28:51;2.60;;;2.40;;
19560;SDS011;9927;47.792;10.616;2023-01-15T05:31:19;2.95;;;2.63;;
19560;SDS011;9927;47.792;10.616;2023-01-15T05:33:48;3.35;;;2.88;;
19560;SDS011;9927;47.792;10.616;2023-01-15T05:36:17;2.95;;;2.70;;
19560;SDS011;9927;47.792;10.616;2023-01-15T05:38:49;3.05;;;2.70;;
19560;SDS011;9927;47.792;10.616;2023-01-15T05:41:17;2.75;;;2.50;;
19560;SDS011;9927;47.792;10.616;2023-01-15T05:44:05;3.67;;;2.97;;
19560;SDS011;9927;47.792;10.616;2023-01-15T05:46:35;3.05;;;2.55;;
19560;SDS011;9927;47.792;10.616;2023-01-15T05:49:05;4.35;;;2.65;;
19560;SDS011;9927;47.792;10.616;2023-01-15T05:51:34;3.03;;;2.60;;
19560;SDS011;9927;47.792;10.616;2023-01-15T05:54:03;2.70;;;2.50;;
19560;SDS011;9927;47.792;10.616;2023-01-15T05:56:33;3.15;;;2.58;;
19560;SDS011;9927;47.792;10.616;2023-01-15T05:59:01;2.40;;;2.30;;
19560;SDS011;9927;47.792;10.616;2023-01-15T06:01:29;2.75;;;2.47;;
19560;SDS011;9927;47.792;10.616;2023-01-15T06:03:57;3.28;;;2.60;;
19560;SDS011;9927;47.792;10.616;2023-01-15T06:06:26;3.65;;;2.60;;
19560;SDS011;9927;47.792;10.616;2023-01-15T06:08:54;3.00;;;2.70;;
19560;SDS011;9927;47.792;10.616;2023-01-15T06:11:21;3.03;;;2.65;;
19560;SDS011;9927;47.792;10.616;2023-01-15T06:13:49;3.20;;;2.63;;
19560;SDS011;9927;47.792;10.616;2023-01-15T06:16:17;3.33;;;2.60;;
19560;SDS011;9927;47.792;10.616;2023-01-15T06:18:44;2.83;;;2.50;;
19560;SDS011;9927;47.792;10.616;2023-01-15T06:21:12;3.25;;;2.72;;
19560;SDS011;9927;47.792;10.616;2023-01-15T06:23:40;2.90;;;2.58;;
19560;SDS011;9927;47.792;10.616;2023-01-15T06:26:16;3.08;;;2.60;;
19560;SDS011;9927;47.792;10.616;2023-01-15T06:28:44;2.75;;;2.50;;
19560;SDS011;9927;47.792;10.616;2023-01-15T06:31:13;3.03;;;2.60;;
19560;SDS011;9927;47.792;10.616;2023-01-15T06:33:43;3.07;;;2.67;;
19560;SDS011;9927;47.792;10.616;2023-01-15T06:36:14;3.05;;;2.75;;
19560;SDS011;9927;47.792;10.616;2023-01-15T06:38:43;3.92;;;3.50;;
19560;SDS011;9927;47.792;10.616;2023-01-15T06:41:14;3.03;;;2.83;;
19560;SDS011;9927;47.792;10.616;2023-01-15T06:44:05;2.47;;;2.35;;
19560;SDS011;9927;47.792;10.616;2023-01-15T06:46:53;2.70;;;2.50;;
19560;SDS011;9927;47.792;10.616;2023-01-15T06:49:39;4.93;;;3.57;;
19560;SDS011;9927;47.792;10.616;2023-01-15T06:52:06;2.50;;;2.40;;
19560;SDS011;9927;47.792;10.616;2023-01-15T06:54:34;3.03;;;2.70;;
19560;SDS011;9927;47.792;10.616;2023-01-15T06:57:01;4.10;;;2.78;;
19560;SDS011;9927;47.792;10.616;2023-01-15T06:59:28;3.05;;;2.75;;
19560;SDS011;9927;47.792;10.616;2023-01-15T07:01:56;3.72;;;2.90;;
19560;SDS011;9927;47.792;10.616;2023-01-15T07:04:24;3.10;;;2.80;;
19560;SDS011;9927;47.792;10.616;2023-01-15T07:06:51;3.38;;;3.08;;
19560;SDS011;9927;47.792;10.616;2023-01-15T07:09:18;2.43;;;2.33;;
19560;SDS011;9927;47.792;10.616;2023-01-15T07:11:45;3.75;;;2.70;;
19560;SDS011;9927;47.792;10.616;2023-01-15T07:14:16;3.33;;;2.80;;
19560;SDS011;9927;47.792;10.616;2023-01-15T07:16:45;2.83;;;2.63;;
19560;SDS011;9927;47.792;10.616;2023-01-15T07:19:13;3.25;;;2.95;;
19560;SDS011;9927;47.792;10.616;2023-01-15T07:21:41;3.72;;;3.05;;
19560;SDS011;9927;47.792;10.616;2023-01-15T07:24:09;4.75;;;3.92;;
19560;SDS011;9927;47.792;10.616;2023-01-15T07:26:37;3.72;;;3.10;;
19560;SDS011;9927;47.792;10.616;2023-01-15T07:29:05;3.08;;;2.80;;
19560;SDS011;9927;47.792;10.616;2023-01-15T07:31:32;5.38;;;3.90;;
19560;SDS011;9927;47.792;10.616;2023-01-15T07:33:59;3.35;;;3.03;;
19560;SDS011;9927;47.792;10.616;2023-01-15T07:36:27;5.50;;;3.53;;
19560;SDS011;9927;47.792;10.616;2023-01-15T07:38:54;3.28;;;2.97;;
19560;SDS011;9927;47.792;10.616;2023-01-15T07:41:21;5.65;;;3.42;;
19560;SDS011;9927;47.792;10.616;2023-01-15T07:44:10;3.20;;;2.90;;
19560;SDS011;9927;47.792;10.616;2023-01-15T07:46:56;5.65;;;3.97;;
19560;SDS011;9927;47.792;10.616;2023-01-15T07:49:42;5.63;;;3.90;;
19560;SDS011;9927;47.792;10.616;2023-01-15T07:52:15;5.10;;;3.45;;
19560;SDS011;9927;47.792;10.616;2023-01-15T07:54:44;7.35;;;4.38;;
19560;SDS011;9927;47.792;10.616;2023-01-15T07:57:13;6.13;;;3.80;;
19560;SDS011;9927;47.792;10.616;2023-01-15T07:59:43;9.05;;;5.10;;
19560;SDS011;9927;47.792;10.616;2023-01-15T08:02:10;6.57;;;4.25;;
19560;SDS011;9927;47.792;10.616;2023-01-15T08:04:38;4.95;;;3.65;;
19560;SDS011;9927;47.792;10.616;2023-01-15T08:07:06;2.88;;;2.65;;
19560;SDS011;9927;47.792;10.616;2023-01-15T08:09:34;3.00;;;2.75;;
19560;SDS011;9927;47.792;10.616;2023-01-15T08:12:02;7.88;;;4.03;;
19560;SDS011;9927;47.792;10.616;2023-01-15T08:14:48;4.25;;;3.30;;
19560;SDS011;9927;47.792;10.616;2023-01-15T08:17:34;7.30;;;4.28;;
19560;SDS011;9927;47.792;10.616;2023-01-15T08:20:03;6.20;;;3.72;;
19560;SDS011;9927;47.792;10.616;2023-01-15T08:22:32;9.60;;;4.63;;
19560;SDS011;9927;47.792;10.616;2023-01-15T08:24:59;6.05;;;4.22;;
19560;SDS011;9927;47.792;10.616;2023-01-15T08:27:27;3.83;;;3.30;;
19560;SDS011;9927;47.792;10.616;2023-01-15T08:29:55;3.15;;;2.90;;
19560;SDS011;9927;47.792;10.616;2023-01-15T08:32:23;4.47;;;3.22;;
19560;SDS011;9927;47.792;10.616;2023-01-15T08:34:50;3.65;;;3.05;;
19560;SDS011;9927;47.792;10.616;2023-01-15T08:37:18;3.67;;;2.90;;
19560;SDS011;9927;47.792;10.616;2023-01-15T08:39:45;7.10;;;4.30;;
19560;SDS011;9927;47.792;10.616;2023-01-15T08:42:12;4.50;;;3.28;;
19560;SDS011;9927;47.792;10.616;2023-01-15T08:44:39;6.25;;;3.67;;
19560;SDS011;9927;47.792;10.616;2023-01-15T08:47:06;4.85;;;3.40;;
19560;SDS011;9927;47.792;10.616;2023-01-15T08:49:34;5.18;;;3.50;;
19560;SDS011;9927;47.792;10.616;2023-01-15T08:52:01;5.20;;;3.55;;
19560;SDS011;9927;47.792;10.616;2023-01-15T08:54:28;3.22;;;3.00;;
19560;SDS011;9927;47.792;10.616;2023-01-15T08:56:57;4.25;;;3.20;;
19560;SDS011;9927;47.792;10.616;2023-01-15T08:59:25;4.75;;;3.53;;
19560;SDS011;9927;47.792;10.616;2023-01-15T09:01:53;3.35;;;3.03;;
19560;SDS011;9927;47.792;10.616;2023-01-15T09:04:20;5.18;;;3.47;;
19560;SDS011;9927;47.792;10.616;2023-01-15T09:06:48;8.52;;;5.10;;
19560;SDS011;9927;47.792;10.616;2023-01-15T09:09:16;5.40;;;3.42;;
19560;SDS011;9927;47.792;10.616;2023-01-15T09:11:44;6.05;;;4.05;;
19560;SDS011;9927;47.792;10.616;2023-01-15T09:14:13;16.42;;;5.93;;
19560;SDS011;9927;47.792;10.616;2023-01-15T09:17:01;2.33;;;2.25;;
19560;SDS011;9927;47.792;10.616;2023-01-15T09:19:28;6.78;;;3.70;;
19560;SDS011;9927;47.792;10.616;2023-01-15T09:21:56;4.93;;;3.58;;
19560;SDS011;9927;47.792;10.616;2023-01-15T09:24:23;6.85;;;3.67;;
19560;SDS011;9927;47.792;10.616;2023-01-15T09:26:50;5.60;;;3.75;;
19560;SDS011;9927;47.792;10.616;2023-01-15T09:29:19;5.88;;;3.90;;
19560;SDS011;9927;47.792;10.616;2023-01-15T09:31:46;4.15;;;3.40;;
19560;SDS011;9927;47.792;10.616;2023-01-15T09:34:13;2.80;;;2.50;;
19560;SDS011;9927;47.792;10.616;2023-01-15T09:36:41;2.72;;;2.53;;
19560;SDS011;9927;47.792;10.616;2023-01-15T09:39:09;2.72;;;2.53;;
19560;SDS011;9927;47.792;10.616;2023-01-15T09:45:06;2.70;;;2.50;;
19560;SDS011;9927;47.792;10.616;2023-01-15T09:52:57;2.65;;;2.45;;
19560;SDS011;9927;47.792;10.616;2023-01-15T09:55:30;2.08;;;2.08;;
19560;SDS011;9927;47.792;10.616;2023-01-15T09:58:01;3.00;;;2.80;;
19560;SDS011;9927;47.792;10.616;2023-01-15T10:01:04;4.07;;;2.80;;
19560;SDS011;9927;47.792;10.616;2023-01-15T10:03:27;2.53;;;2.33;;
19560;SDS011;9927;47.792;10.616;2023-01-15T10:06:20;2.78;;;2.58;;
19560;SDS011;9927;47.792;10.616;2023-01-15T10:08:52;2.60;;;2.40;;
19560;SDS011;9927;47.792;10.616;2023-01-15T10:11:45;3.20;;;2.90;;
19560;SDS011;9927;47.792;10.616;2023-01-15T10:14:38;3.42;;;2.70;;
19560;SDS011;9927;47.792;10.616;2023-01-15T10:17:18;2.67;;;2.47;;
19560;SDS011;9927;47.792;10.616;2023-01-15T10:19:51;3.13;;;2.80;;
19560;SDS011;9927;47.792;10.616;2023-01-15T10:22:38;3.15;;;2.80;;
19560;SDS011;9927;47.792;10.616;2023-01-15T10:25:13;2.80;;;2.60;;
19560;SDS011;9927;47.792;10.616;2023-01-15T10:27:46;2.85;;;2.60;;
19560;SDS011;9927;47.792;10.616;2023-01-15T10:31:01;2.60;;;2.40;;
19560;SDS011;9927;47.792;10.616;2023-01-15T10:33:26;2.60;;;2.40;;
19560;SDS011;9927;47.792;10.616;2023-01-15T10:36:10;2.70;;;2.50;;
19560;SDS011;9927;47.792;10.616;2023-01-15T10:44:37;6.72;;;3.50;;
19560;SDS011;9927;47.792;10.616;2023-01-15T10:47:14;3.90;;;2.85;;
19560;SDS011;9927;47.792;10.616;2023-01-15T10:49:46;6.93;;;4.25;;
19560;SDS011;9927;47.792;10.616;2023-01-15T10:55:31;8.93;;;4.47;;
19560;SDS011;9927;47.792;10.616;2023-01-15T11:01:19;3.50;;;3.00;;
19560;SDS011;9927;47.792;10.616;2023-01-15T11:03:49;6.53;;;4.03;;
19560;SDS011;9927;47.792;10.616;2023-01-15T11:06:17;7.28;;;4.18;;
19560;SDS011;9927;47.792;10.616;2023-01-15T11:08:55;4.45;;;3.53;;
19560;SDS011;9927;47.792;10.616;2023-01-15T11:14:31;8.93;;;4.35;;
19560;SDS011;9927;47.792;10.616;2023-01-15T11:17:22;3.20;;;2.90;;
19560;SDS011;9927;47.792;10.616;2023-01-15T11:23:06;3.03;;;2.70;;
19560;SDS011;9927;47.792;10.616;2023-01-15T11:25:34;5.68;;;3.85;;
19560;SDS011;9927;47.792;10.616;2023-01-15T11:28:03;5.68;;;3.58;;
19560;SDS011;9927;47.792;10.616;2023-01-15T11:30:34;10.07;;;4.30;;
19560;SDS011;9927;47.792;10.616;2023-01-15T11:33:15;6.68;;;3.75;;
19560;SDS011;9927;47.792;10.616;2023-01-15T11:35:51;4.30;;;3.10;;
19560;SDS011;9927;47.792;10.616;2023-01-15T11:38:25;6.37;;;4.00;;
19560;SDS011;9927;47.792;10.616;2023-01-15T11:41:22;3.15;;;2.78;;
19560;SDS011;9927;47.792;10.616;2023-01-15T11:44:13;3.03;;;2.72;;
19560;SDS011;9927;47.792;10.616;2023-01-15T11:47:00;6.65;;;3.90;;
19560;SDS011;9927;47.792;10.616;2023-01-15T11:49:49;5.33;;;3.60;;
19560;SDS011;9927;47.792;10.616;2023-01-15T11:52:45;4.57;;;3.07;;
19560;SDS011;9927;47.792;10.616;2023-01-15T11:55:17;7.20;;;3.90;;
19560;SDS011;9927;47.792;10.616;2023-01-15T11:57:47;7.82;;;3.83;;
19560;SDS011;9927;47.792;10.616;2023-01-15T12:00:21;8.40;;;4.23;;
19560;SDS011;9927;47.792;10.616;2023-01-15T12:03:01;4.50;;;3.00;;
19560;SDS011;9927;47.792;10.616;2023-01-15T12:05:43;7.20;;;3.80;;
19560;SDS011;9927;47.792;10.616;2023-01-15T12:08:51;4.17;;;2.90;;
19560;SDS011;9927;47.792;10.616;2023-01-15T12:11:49;10.37;;;4.33;;
19560;SDS011;9927;47.792;10.616;2023-01-15T12:20:21;14.27;;;4.93;;
19560;SDS011;9927;47.792;10.616;2023-01-15T12:23:11;4.10;;;3.20;;
19560;SDS011;9927;47.792;10.616;2023-01-15T12:31:51;15.67;;;5.53;;
19560;SDS011;9927;47.792;10.616;2023-01-15T12:34:39;8.73;;;4.23;;
19560;SDS011;9927;47.792;10.616;2023-01-15T12:37:22;9.57;;;4.17;;
19560;SDS011;9927;47.792;10.616;2023-01-15T12:39:57;7.17;;;3.60;;
19560;SDS011;9927;47.792;10.616;2023-01-15T12:42:45;3.77;;;3.10;;
19560;SDS011;9927;47.792;10.616;2023-01-15T12:45:37;8.00;;;4.00;;
19560;SDS011;9927;47.792;10.616;2023-01-15T12:48:18;7.13;;;3.60;;
19560;SDS011;9927;47.792;10.616;2023-01-15T12:50:59;6.33;;;3.47;;
19560;SDS011;9927;47.792;10.616;2023-01-15T12:53:37;5.13;;;3.20;;
19560;SDS011;9927;47.792;10.616;2023-01-15T12:56:23;5.40;;;3.27;;
19560;SDS011;9927;47.792;10.616;2023-01-15T13:05:06;4.97;;;3.30;;
19560;SDS011;9927;47.792;10.616;2023-01-15T13:09:59;9.07;;;4.43;;
19560;SDS011;9927;47.792;10.616;2023-01-15T13:12:34;4.17;;;3.37;;
19560;SDS011;9927;47.792;10.616;2023-01-15T13:15:01;5.80;;;3.50;;
19560;SDS011;9927;47.792;10.616;2023-01-15T13:22:31;6.40;;;3.77;;
19560;SDS011;9927;47.792;10.616;2023-01-15T13:25:40;10.97;;;4.73;;
19560;SDS011;9927;47.792;10.616;2023-01-15T13:28:26;11.80;;;4.87;;
19560;SDS011;9927;47.792;10.616;2023-01-15T13:34:02;14.17;;;5.07;;
19560;SDS011;9927;47.792;10.616;2023-01-15T13:36:40;12.97;;;4.97;;
19560;SDS011;9927;47.792;10.616;2023-01-15T13:39:14;5.60;;;3.70;;
19560;SDS011;9927;47.792;10.616;2023-01-15T13:41:46;7.03;;;3.80;;
19560;SDS011;9927;47.792;10.616;2023-01-15T13:44:35;9.70;;;5.17;;
19560;SDS011;9927;47.792;10.616;2023-01-15T13:47:33;11.17;;;7.40;;
19560;SDS011;9927;47.792;10.616;2023-01-15T13:50:03;13.47;;;6.30;;
19560;SDS011;9927;47.792;10.616;2023-01-15T13:52:38;12.03;;;5.53;;
19560;SDS011;9927;47.792;10.616;2023-01-15T13:55:09;10.40;;;6.53;;
19560;SDS011;9927;47.792;10.616;2023-01-15T13:57:41;16.87;;;7.03;;
19560;SDS011;9927;47.792;10.616;2023-01-15T14:03:00;10.57;;;5.73;;
19560;SDS011;9927;47.792;10.616;2023-01-15T14:05:52;14.00;;;7.13;;
19560;SDS011;9927;47.792;10.616;2023-01-15T14:08:25;4.47;;;4.10;;
19560;SDS011;9927;47.792;10.616;2023-01-15T14:10:54;10.23;;;4.83;;
19560;SDS011;9927;47.792;10.616;2023-01-15T14:13:28;7.03;;;4.00;;
19560;SDS011;9927;47.792;10.616;2023-01-15T14:35:43;7.17;;;4.03;;
19560;SDS011;9927;47.792;10.616;2023-01-15T14:38:14;5.80;;;3.60;;
19560;SDS011;9927;47.792;10.616;2023-01-15T14:41:22;17.60;;;6.03;;
19560;SDS011;9927;47.792;10.616;2023-01-15T14:43:39;14.33;;;5.77;;
19560;SDS011;9927;47.792;10.616;2023-01-15T14:46:25;13.73;;;5.40;;
19560;SDS011;9927;47.792;10.616;2023-01-15T14:49:00;7.60;;;3.87;;
19560;SDS011;9927;47.792;10.616;2023-01-15T14:51:35;8.47;;;4.43;;
19560;SDS011;9927;47.792;10.616;2023-01-15T14:54:16;8.03;;;4.10;;
19560;SDS011;9927;47.792;10.616;2023-01-15T14:56:49;4.10;;;3.60;;
19560;SDS011;9927;47.792;10.616;2023-01-15T14:59:21;10.00;;;4.50;;
19560;SDS011;9927;47.792;10.616;2023-01-15T15:01:56;12.63;;;5.60;;
19560;SDS011;9927;47.792;10.616;2023-01-15T15:04:49;12.90;;;5.37;;
19560;SDS011;9927;47.792;10.616;2023-01-15T15:07:20;14.70;;;5.47;;
19560;SDS011;9927;47.792;10.616;2023-01-15T15:12:57;7.57;;;4.03;;
19560;SDS011;9927;47.792;10.616;2023-01-15T15:15:35;11.77;;;4.17;;
19560;SDS011;9927;47.792;10.616;2023-01-15T15:21:25;15.40;;;5.90;;
19560;SDS011;9927;47.792;10.616;2023-01-15T15:24:04;10.33;;;4.73;;
19560;SDS011;9927;47.792;10.616;2023-01-15T15:26:40;7.93;;;4.07;;
19560;SDS011;9927;47.792;10.616;2023-01-15T15:31:40;9.87;;;4.40;;
19560;SDS011;9927;47.792;10.616;2023-01-15T15:34:15;12.97;;;4.63;;
19560;SDS011;9927;47.792;10.616;2023-01-15T15:36:48;11.13;;;4.77;;
19560;SDS011;9927;47.792;10.616;2023-01-15T15:39:18;10.07;;;4.93;;
19560;SDS011;9927;47.792;10.616;2023-01-15T15:41:49;7.93;;;4.23;;
19560;SDS011;9927;47.792;10.616;2023-01-15T15:44:40;12.73;;;5.20;;
19560;SDS011;9927;47.792;10.616;2023-01-15T15:47:27;10.00;;;4.43;;
19560;SDS011;9927;47.792;10.616;2023-01-15T15:50:30;9.90;;;4.80;;
19560;SDS011;9927;47.792;10.616;2023-01-15T15:52:59;8.23;;;4.30;;
19560;SDS011;9927;47.792;10.616;2023-01-15T15:55:39;11.57;;;5.20;;
19560;SDS011;9927;47.792;10.616;2023-01-15T15:58:10;5.43;;;4.23;;
19560;SDS011;9927;47.792;10.616;2023-01-15T16:00:51;8.00;;;4.17;;
19560;SDS011;9927;47.792;10.616;2023-01-15T16:03:20;17.50;;;7.17;;
19560;SDS011;9927;47.792;10.616;2023-01-15T16:05:56;13.60;;;5.87;;
19560;SDS011;9927;47.792;10.616;2023-01-15T16:08:29;12.50;;;5.57;;
19560;SDS011;9927;47.792;10.616;2023-01-15T16:11:01;9.57;;;4.97;;
19560;SDS011;9927;47.792;10.616;2023-01-15T16:13:42;11.53;;;5.30;;
19560;SDS011;9927;47.792;10.616;2023-01-15T16:16:12;12.80;;;5.50;;
19560;SDS011;9927;47.792;10.616;2023-01-15T16:18:43;9.67;;;4.57;;
19560;SDS011;9927;47.792;10.616;2023-01-15T16:21:20;7.80;;;4.30;;
19560;SDS011;9927;47.792;10.616;2023-01-15T16:24:03;4.37;;;3.60;;
19560;SDS011;9927;47.792;10.616;2023-01-15T16:27:05;4.07;;;3.73;;
19560;SDS011;9927;47.792;10.616;2023-01-15T16:29:35;6.80;;;4.20;;
19560;SDS011;9927;47.792;10.616;2023-01-15T16:32:08;7.23;;;4.10;;
19560;SDS011;9927;47.792;10.616;2023-01-15T16:34:38;6.93;;;4.00;;
19560;SDS011;9927;47.792;10.616;2023-01-15T16:37:15;6.40;;;4.33;;
19560;SDS011;9927;47.792;10.616;2023-01-15T16:39:52;8.60;;;5.10;;
19560;SDS011;9927;47.792;10.616;2023-01-15T16:50:33;5.20;;;3.67;;
19560;SDS011;9927;47.792;10.616;2023-01-15T16:53:03;14.43;;;4.87;;
19560;SDS011;9927;47.792;10.616;2023-01-15T17:00:38;12.03;;;5.90;;
19560;SDS011;9927;47.792;10.616;2023-01-15T17:03:14;8.03;;;5.50;;
19560;SDS011;9927;47.792;10.616;2023-01-15T17:05:59;4.67;;;4.30;;
19560;SDS011;9927;47.792;10.616;2023-01-15T17:08:36;9.80;;;4.20;;
19560;SDS011;9927;47.792;10.616;2023-01-15T17:11:06;6.83;;;4.37;;
19560;SDS011;9927;47.792;10.616;2023-01-15T17:13:46;7.40;;;4.20;;
19560;SDS011;9927;47.792;10.616;2023-01-15T17:16:18;6.37;;;4.00;;
19560;SDS011;9927;47.792;10.616;2023-01-15T17:18:49;20.10;;;6.83;;
19560;SDS011;9927;47.792;10.616;2023-01-15T17:21:18;13.77;;;5.27;;
19560;SDS011;9927;47.792;10.616;2023-01-15T17:23:53;9.27;;;4.37;;
19560;SDS011;9927;47.792;10.616;2023-01-15T17:26:22;9.30;;;4.23;;
19560;SDS011;9927;47.792;10.616;2023-01-15T17:28:51;17.13;;;6.37;;
19560;SDS011;9927;47.792;10.616;2023-01-15T17:31:25;11.53;;;4.77;;
19560;SDS011;9927;47.792;10.616;2023-01-15T17:33:59;16.53;;;5.90;;
19560;SDS011;9927;47.792;10.616;2023-01-15T17:36:28;12.57;;;5.03;;
19560;SDS011;9927;47.792;10.616;2023-01-15T17:38:56;11.07;;;4.97;;
19560;SDS011;9927;47.792;10.616;2023-01-15T17:41:23;9.23;;;4.57;;
19560;SDS011;9927;47.792;10.616;2023-01-15T17:43:50;9.73;;;4.50;;
19560;SDS011;9927;47.792;10.616;2023-01-15T17:46:17;9.30;;;4.63;;
19560;SDS011;9927;47.792;10.616;2023-01-15T17:48:45;13.67;;;5.77;;
19560;SDS011;9927;47.792;10.616;2023-01-15T17:51:13;4.57;;;4.17;;
19560;SDS011;9927;47.792;10.616;2023-01-15T17:53:41;11.50;;;5.17;;
19560;SDS011;9927;47.792;10.616;2023-01-15T17:56:08;9.97;;;4.80;;
19560;SDS011;9927;47.792;10.616;2023-01-15T17:58:54;31.17;;;9.37;;
19560;SDS011;9927;47.792;10.616;2023-01-15T18:01:44;12.20;;;5.50;;
19560;SDS011;9927;47.792;10.616;2023-01-15T18:04:34;12.90;;;5.00;;
19560;SDS011;9927;47.792;10.616;2023-01-15T18:07:30;7.43;;;4.10;;
19560;SDS011;9927;47.792;10.616;2023-01-15T18:10:01;7.00;;;4.03;;
19560;SDS011;9927;47.792;10.616;2023-01-15T18:12:29;11.00;;;4.60;;
19560;SDS011;9927;47.792;10.616;2023-01-15T18:14:56;8.70;;;4.37;;
19560;SDS011;9927;47.792;10.616;2023-01-15T18:17:24;11.83;;;5.07;;
19560;SDS011;9927;47.792;10.616;2023-01-15T18:19:51;12.70;;;5.23;;
19560;SDS011;9927;47.792;10.616;2023-01-15T18:22:21;8.13;;;3.97;;
19560;SDS011;9927;47.792;10.616;2023-01-15T18:24:48;8.47;;;4.27;;
19560;SDS011;9927;47.792;10.616;2023-01-15T18:27:15;8.77;;;4.40;;
19560;SDS011;9927;47.792;10.616;2023-01-15T18:29:43;15.13;;;6.33;;
19560;SDS011;9927;47.792;10.616;2023-01-15T18:32:10;6.93;;;4.30;;
19560;SDS011;9927;47.792;10.616;2023-01-15T18:34:37;8.00;;;4.40;;
19560;SDS011;9927;47.792;10.616;2023-01-15T18:37:04;6.90;;;4.17;;
19560;SDS011;9927;47.792;10.616;2023-01-15T18:39:32;4.37;;;4.03;;
19560;SDS011;9927;47.792;10.616;2023-01-15T18:42:01;8.50;;;4.80;;
19560;SDS011;9927;47.792;10.616;2023-01-15T18:44:28;8.50;;;4.53;;
19560;SDS011;9927;47.792;10.616;2023-01-15T18:47:14;12.53;;;5.43;;
19560;SDS011;9927;47.792;10.616;2023-01-15T18:49:43;11.57;;;5.37;;
19560;SDS011;9927;47.792;10.616;2023-01-15T18:52:12;7.47;;;4.50;;
19560;SDS011;9927;47.792;10.616;2023-01-15T18:55:00;11.07;;;5.30;;
19560;SDS011;9927;47.792;10.616;2023-01-15T18:57:27;8.30;;;4.70;;
19560;SDS011;9927;47.792;10.616;2023-01-15T18:59:57;9.83;;;5.10;;
19560;SDS011;9927;47.792;10.616;2023-01-15T19:02:24;9.63;;;4.73;;
19560;SDS011;9927;47.792;10.616;2023-01-15T19:04:52;10.57;;;4.80;;
19560;SDS011;9927;47.792;10.616;2023-01-15T19:07:19;10.30;;;4.93;;
19560;SDS011;9927;47.792;10.616;2023-01-15T19:09:46;15.73;;;6.60;;
19560;SDS011;9927;47.792;10.616;2023-01-15T19:12:13;11.53;;;5.30;;
19560;SDS011;9927;47.792;10.616;2023-01-15T19:14:42;9.67;;;4.90;;
19560;SDS011;9927;47.792;10.616;2023-01-15T19:17:28;12.77;;;6.00;;
19560;SDS011;9927;47.792;10.616;2023-01-15T19:20:15;11.67;;;5.33;;
19560;SDS011;9927;47.792;10.616;2023-01-15T19:22:43;17.33;;;5.30;;
19560;SDS011;9927;47.792;10.616;2023-01-15T19:25:50;14.63;;;5.83;;
19560;SDS011;9927;47.792;10.616;2023-01-15T19:28:18;11.83;;;5.00;;
19560;SDS011;9927;47.792;10.616;2023-01-15T19:30:46;12.63;;;5.13;;
19560;SDS011;9927;47.792;10.616;2023-01-15T19:33:33;11.73;;;5.43;;
19560;SDS011;9927;47.792;10.616;2023-01-15T19:36:01;9.57;;;5.97;;
19560;SDS011;9927;47.792;10.616;2023-01-15T19:38:28;11.40;;;6.23;;
19560;SDS011;9927;47.792;10.616;2023-01-15T19:40:55;9.90;;;6.47;;
19560;SDS011;9927;47.792;10.616;2023-01-15T19:43:43;14.73;;;6.10;;
19560;SDS011;9927;47.792;10.616;2023-01-15T19:46:29;9.93;;;5.70;;
19560;SDS011;9927;47.792;10.616;2023-01-15T19:49:16;11.17;;;5.97;;
19560;SDS011;9927;47.792;10.616;2023-01-15T19:52:04;9.80;;;5.80;;
19560;SDS011;9927;47.792;10.616;2023-01-15T19:54:50;8.40;;;5.00;;
19560;SDS011;9927;47.792;10.616;2023-01-15T19:57:23;8.13;;;4.57;;
19560;SDS011;9927;47.792;10.616;2023-01-15T19:59:51;8.87;;;5.20;;
19560;SDS011;9927;47.792;10.616;2023-01-15T20:02:18;7.93;;;4.20;;
19560;SDS011;9927;47.792;10.616;2023-01-15T20:04:45;6.20;;;4.30;;
19560;SDS011;9927;47.792;10.616;2023-01-15T20:07:13;7.17;;;4.50;;
19560;SDS011;9927;47.792;10.616;2023-01-15T20:09:41;5.87;;;4.70;;
19560;SDS011;9927;47.792;10.616;2023-01-15T20:12:10;9.53;;;5.00;;
19560;SDS011;9927;47.792;10.616;2023-01-15T20:14:56;3.87;;;3.67;;
19560;SDS011;9927;47.792;10.616;2023-01-15T20:17:27;6.63;;;4.30;;
19560;SDS011;9927;47.792;10.616;2023-01-15T20:19:55;6.50;;;4.23;;
19560;SDS011;9927;47.792;10.616;2023-01-15T20:22:23;18.50;;;5.93;;
19560;SDS011;9927;47.792;10.616;2023-01-15T20:24:51;9.60;;;5.10;;
19560;SDS011;9927;47.792;10.616;2023-01-15T20:27:19;22.90;;;7.53;;
19560;SDS011;9927;47.792;10.616;2023-01-15T20:29:46;13.67;;;6.57;;
19560;SDS011;9927;47.792;10.616;2023-01-15T20:32:37;7.00;;;4.80;;
19560;SDS011;9927;47.792;10.616;2023-01-15T20:35:07;6.97;;;4.40;;
19560;SDS011;9927;47.792;10.616;2023-01-15T20:37:37;7.83;;;4.47;;
19560;SDS011;9927;47.792;10.616;2023-01-15T20:40:04;6.77;;;4.37;;
19560;SDS011;9927;47.792;10.616;2023-01-15T20:42:33;14.53;;;5.17;;
19560;SDS011;9927;47.792;10.616;2023-01-15T20:45:19;4.03;;;3.83;;
19560;SDS011;9927;47.792;10.616;2023-01-15T20:47:47;6.80;;;4.50;;
19560;SDS011;9927;47.792;10.616;2023-01-15T20:50:33;10.63;;;5.00;;
19560;SDS011;9927;47.792;10.616;2023-01-15T20:53:02;7.77;;;4.60;;
19560;SDS011;9927;47.792;10.616;2023-01-15T20:55:31;7.20;;;4.43;;
19560;SDS011;9927;47.792;10.616;2023-01-15T20:58:21;18.17;;;6.00;;
19560;SDS011;9927;47.792;10.616;2023-01-15T21:00:48;12.57;;;5.43;;
19560;SDS011;9927;47.792;10.616;2023-01-15T21:03:16;10.67;;;5.23;;
19560;SDS011;9927;47.792;10.616;2023-01-15T21:05:43;9.30;;;5.17;;